sensor_id;sensor_type;location;lat;lon;timestamp;P1;durP1;ratioP1;P2;durP2;ratioP2
14092;SDS011;7123;49.468;10.992;2022-08-11T00:00:11;5.22;;;2.70;;
14092;SDS011;7123;49.468;10.992;2022-08-11T00:02:40;2.72;;;2.53;;
14092;SDS011;7123;49.468;10.992;2022-08-11T00:05:10;2.60;;;2.50;;
14092;SDS011;7123;49.468;10.992;2022-08-11T00:07:47;3.72;;;2.55;;
14092;SDS011;7123;49.468;10.992;2022-08-11T00:10:23;4.25;;;2.70;;
14092;SDS011;7123;49.468;10.992;2022-08-11T00:12:54;2.92;;;2.40;;
14092;SDS011;7123;49.468;10.992;2022-08-11T00:15:24;3.05;;;2.85;;
14092;SDS011;7123;49.468;10.992;2022-08-11T00:17:56;3.25;;;2.63;;
14092;SDS011;7123;49.468;10.992;2022-08-11T00:20:31;4.25;;;2.65;;
14092;SDS011;7123;49.468;10.992;2022-08-11T00:23:10;3.88;;;2.58;;
14092;SDS011;7123;49.468;10.992;2022-08-11T00:25:47;2.70;;;2.50;;
14092;SDS011;7123;49.468;10.992;2022-08-11T00:28:27;3.00;;;2.67;;
14092;SDS011;7123;49.468;10.992;2022-08-11T00:31:02;4.95;;;2.60;;
14092;SDS011;7123;49.468;10.992;2022-08-11T00:33:36;5.45;;;2.97;;
14092;SDS011;7123;49.468;10.992;2022-08-11T00:36:11;4.30;;;2.63;;
14092;SDS011;7123;49.468;10.992;2022-08-11T00:38:41;3.03;;;2.65;;
14092;SDS011;7123;49.468;10.992;2022-08-11T00:41:15;6.72;;;2.50;;
14092;SDS011;7123;49.468;10.992;2022-08-11T00:47:04;4.38;;;3.10;;
14092;SDS011;7123;49.468;10.992;2022-08-11T00:49:57;4.10;;;2.40;;
14092;SDS011;7123;49.468;10.992;2022-08-11T01:20:49;3.63;;;2.75;;
14092;SDS011;7123;49.468;10.992;2022-08-11T01:37:57;4.53;;;2.78;;
14092;SDS011;7123;49.468;10.992;2022-08-11T01:46:27;3.25;;;2.60;;
14092;SDS011;7123;49.468;10.992;2022-08-11T01:52:14;3.00;;;2.80;;
14092;SDS011;7123;49.468;10.992;2022-08-11T01:55:06;4.05;;;3.05;;
14092;SDS011;7123;49.468;10.992;2022-08-11T01:58:09;3.13;;;2.90;;
14092;SDS011;7123;49.468;10.992;2022-08-11T02:00:53;3.45;;;3.15;;
14092;SDS011;7123;49.468;10.992;2022-08-11T02:03:35;2.85;;;2.65;;
14092;SDS011;7123;49.468;10.992;2022-08-11T02:06:12;4.22;;;2.80;;
14092;SDS011;7123;49.468;10.992;2022-08-11T02:09:14;3.03;;;2.83;;
14092;SDS011;7123;49.468;10.992;2022-08-11T02:11:44;3.00;;;2.53;;
14092;SDS011;7123;49.468;10.992;2022-08-11T02:14:23;5.18;;;2.67;;
14092;SDS011;7123;49.468;10.992;2022-08-11T02:26:04;5.15;;;2.92;;
14092;SDS011;7123;49.468;10.992;2022-08-11T02:40:46;3.33;;;3.03;;
14092;SDS011;7123;49.468;10.992;2022-08-11T02:46:30;2.95;;;2.75;;
14092;SDS011;7123;49.468;10.992;2022-08-11T02:49:43;3.50;;;2.80;;
14092;SDS011;7123;49.468;10.992;2022-08-11T03:01:57;5.85;;;3.05;;
14092;SDS011;7123;49.468;10.992;2022-08-11T03:04:35;4.97;;;3.00;;
14092;SDS011;7123;49.468;10.992;2022-08-11T03:07:20;2.85;;;2.33;;
14092;SDS011;7123;49.468;10.992;2022-08-11T03:09:57;3.90;;;2.95;;
14092;SDS011;7123;49.468;10.992;2022-08-11T03:12:44;4.28;;;2.90;;
14092;SDS011;7123;49.468;10.992;2022-08-11T03:15:47;4.07;;;2.50;;
14092;SDS011;7123;49.468;10.992;2022-08-11T03:19:02;3.08;;;2.88;;
14092;SDS011;7123;49.468;10.992;2022-08-11T03:21:49;4.93;;;3.00;;
14092;SDS011;7123;49.468;10.992;2022-08-11T03:24:35;10.25;;;3.47;;
14092;SDS011;7123;49.468;10.992;2022-08-11T03:27:09;3.58;;;3.00;;
14092;SDS011;7123;49.468;10.992;2022-08-11T03:30:00;2.92;;;2.70;;
14092;SDS011;7123;49.468;10.992;2022-08-11T03:32:41;3.95;;;3.03;;
14092;SDS011;7123;49.468;10.992;2022-08-11T03:39:04;5.93;;;3.10;;
14092;SDS011;7123;49.468;10.992;2022-08-11T03:45:14;3.63;;;2.90;;
14092;SDS011;7123;49.468;10.992;2022-08-11T03:50:45;6.90;;;3.08;;
14092;SDS011;7123;49.468;10.992;2022-08-11T04:02:02;4.97;;;2.97;;
14092;SDS011;7123;49.468;10.992;2022-08-11T04:16:09;3.35;;;3.08;;
14092;SDS011;7123;49.468;10.992;2022-08-11T04:18:57;7.25;;;3.13;;
14092;SDS011;7123;49.468;10.992;2022-08-11T04:25:04;3.92;;;3.15;;
14092;SDS011;7123;49.468;10.992;2022-08-11T04:47:21;3.90;;;3.10;;
14092;SDS011;7123;49.468;10.992;2022-08-11T05:07:08;8.23;;;3.33;;
14092;SDS011;7123;49.468;10.992;2022-08-11T05:10:58;6.90;;;3.20;;
14092;SDS011;7123;49.468;10.992;2022-08-11T05:13:11;4.55;;;3.03;;
14092;SDS011;7123;49.468;10.992;2022-08-11T05:16:11;3.13;;;2.80;;
14092;SDS011;7123;49.468;10.992;2022-08-11T05:18:59;4.90;;;2.80;;
14092;SDS011;7123;49.468;10.992;2022-08-11T05:21:50;6.05;;;2.88;;
14092;SDS011;7123;49.468;10.992;2022-08-11T05:28:27;4.38;;;2.80;;
14092;SDS011;7123;49.468;10.992;2022-08-11T05:31:17;3.72;;;3.03;;
14092;SDS011;7123;49.468;10.992;2022-08-11T05:36:52;3.85;;;3.00;;
14092;SDS011;7123;49.468;10.992;2022-08-11T05:39:47;6.43;;;3.05;;
14092;SDS011;7123;49.468;10.992;2022-08-11T05:42:37;3.00;;;2.67;;
14092;SDS011;7123;49.468;10.992;2022-08-11T05:45:27;3.40;;;3.00;;
14092;SDS011;7123;49.468;10.992;2022-08-11T05:48:33;5.20;;;2.92;;
14092;SDS011;7123;49.468;10.992;2022-08-11T05:51:20;4.82;;;2.92;;
14092;SDS011;7123;49.468;10.992;2022-08-11T05:54:20;4.72;;;2.80;;
14092;SDS011;7123;49.468;10.992;2022-08-11T05:57:22;5.88;;;2.67;;
14092;SDS011;7123;49.468;10.992;2022-08-11T06:00:13;7.20;;;3.35;;
14092;SDS011;7123;49.468;10.992;2022-08-11T06:02:51;4.38;;;2.83;;
14092;SDS011;7123;49.468;10.992;2022-08-11T06:05:20;4.53;;;2.85;;
14092;SDS011;7123;49.468;10.992;2022-08-11T06:07:51;4.97;;;2.80;;
14092;SDS011;7123;49.468;10.992;2022-08-11T06:10:26;5.45;;;3.10;;
14092;SDS011;7123;49.468;10.992;2022-08-11T06:12:58;4.55;;;2.90;;
14092;SDS011;7123;49.468;10.992;2022-08-11T06:15:26;5.60;;;2.97;;
14092;SDS011;7123;49.468;10.992;2022-08-11T06:17:55;7.75;;;2.95;;
14092;SDS011;7123;49.468;10.992;2022-08-11T06:20:23;4.25;;;3.28;;
14092;SDS011;7123;49.468;10.992;2022-08-11T06:22:54;5.90;;;3.05;;
14092;SDS011;7123;49.468;10.992;2022-08-11T06:25:29;5.18;;;3.08;;
14092;SDS011;7123;49.468;10.992;2022-08-11T06:27:57;3.90;;;2.80;;
14092;SDS011;7123;49.468;10.992;2022-08-11T06:30:44;7.10;;;3.05;;
14092;SDS011;7123;49.468;10.992;2022-08-11T06:33:28;2.97;;;2.78;;
14092;SDS011;7123;49.468;10.992;2022-08-11T06:38:52;3.75;;;2.72;;
14092;SDS011;7123;49.468;10.992;2022-08-11T06:44:29;4.50;;;3.35;;
14092;SDS011;7123;49.468;10.992;2022-08-11T06:47:06;4.40;;;2.72;;
14092;SDS011;7123;49.468;10.992;2022-08-11T06:49:42;5.28;;;2.63;;
14092;SDS011;7123;49.468;10.992;2022-08-11T06:52:30;4.45;;;2.70;;
14092;SDS011;7123;49.468;10.992;2022-08-11T06:55:20;3.85;;;2.90;;
14092;SDS011;7123;49.468;10.992;2022-08-11T06:58:25;3.88;;;2.80;;
14092;SDS011;7123;49.468;10.992;2022-08-11T07:01:15;3.45;;;3.15;;
14092;SDS011;7123;49.468;10.992;2022-08-11T07:03:47;4.35;;;2.90;;
14092;SDS011;7123;49.468;10.992;2022-08-11T07:06:37;6.70;;;3.10;;
14092;SDS011;7123;49.468;10.992;2022-08-11T07:09:45;3.53;;;2.72;;
14092;SDS011;7123;49.468;10.992;2022-08-11T07:12:41;4.28;;;3.05;;
14092;SDS011;7123;49.468;10.992;2022-08-11T07:15:54;8.45;;;2.83;;
14092;SDS011;7123;49.468;10.992;2022-08-11T07:18:38;7.28;;;2.75;;
14092;SDS011;7123;49.468;10.992;2022-08-11T07:21:26;4.30;;;2.97;;
14092;SDS011;7123;49.468;10.992;2022-08-11T07:24:31;8.27;;;3.08;;
14092;SDS011;7123;49.468;10.992;2022-08-11T07:27:30;3.22;;;2.60;;
14092;SDS011;7123;49.468;10.992;2022-08-11T07:30:21;3.03;;;2.80;;
14092;SDS011;7123;49.468;10.992;2022-08-11T07:32:58;3.05;;;2.83;;
14092;SDS011;7123;49.468;10.992;2022-08-11T07:35:27;3.88;;;2.60;;
14092;SDS011;7123;49.468;10.992;2022-08-11T07:38:03;4.82;;;2.67;;
14092;SDS011;7123;49.468;10.992;2022-08-11T07:40:36;4.35;;;2.60;;
14092;SDS011;7123;49.468;10.992;2022-08-11T07:43:04;3.50;;;2.85;;
14092;SDS011;7123;49.468;10.992;2022-08-11T07:45:32;3.38;;;2.60;;
14092;SDS011;7123;49.468;10.992;2022-08-11T07:48:18;2.88;;;2.67;;
14092;SDS011;7123;49.468;10.992;2022-08-11T07:51:04;3.60;;;2.85;;
14092;SDS011;7123;49.468;10.992;2022-08-11T07:53:49;7.63;;;2.70;;
14092;SDS011;7123;49.468;10.992;2022-08-11T07:56:33;9.02;;;3.20;;
14092;SDS011;7123;49.468;10.992;2022-08-11T07:59:23;3.55;;;2.70;;
14092;SDS011;7123;49.468;10.992;2022-08-11T08:02:29;3.33;;;2.75;;
14092;SDS011;7123;49.468;10.992;2022-08-11T08:05:14;2.83;;;2.58;;
14092;SDS011;7123;49.468;10.992;2022-08-11T08:08:01;3.83;;;2.58;;
14092;SDS011;7123;49.468;10.992;2022-08-11T08:10:48;5.30;;;2.63;;
14092;SDS011;7123;49.468;10.992;2022-08-11T08:13:33;3.05;;;2.78;;
14092;SDS011;7123;49.468;10.992;2022-08-11T08:16:20;3.72;;;2.63;;
14092;SDS011;7123;49.468;10.992;2022-08-11T08:19:06;3.00;;;2.70;;
14092;SDS011;7123;49.468;10.992;2022-08-11T08:21:37;3.80;;;2.40;;
14092;SDS011;7123;49.468;10.992;2022-08-11T08:24:04;2.60;;;2.40;;
14092;SDS011;7123;49.468;10.992;2022-08-11T08:26:32;3.17;;;2.33;;
14092;SDS011;7123;49.468;10.992;2022-08-11T08:29:30;4.50;;;3.00;;
14092;SDS011;7123;49.468;10.992;2022-08-11T08:32:18;2.75;;;2.55;;
14092;SDS011;7123;49.468;10.992;2022-08-11T08:34:50;4.05;;;2.38;;
14092;SDS011;7123;49.468;10.992;2022-08-11T08:37:20;4.43;;;2.10;;
14092;SDS011;7123;49.468;10.992;2022-08-11T08:40:12;4.38;;;2.20;;
14092;SDS011;7123;49.468;10.992;2022-08-11T08:42:41;2.70;;;2.50;;
14092;SDS011;7123;49.468;10.992;2022-08-11T08:45:18;2.50;;;2.30;;
14092;SDS011;7123;49.468;10.992;2022-08-11T08:47:47;2.80;;;2.28;;
14092;SDS011;7123;49.468;10.992;2022-08-11T08:50:20;3.28;;;2.65;;
14092;SDS011;7123;49.468;10.992;2022-08-11T08:52:59;3.97;;;2.65;;
14092;SDS011;7123;49.468;10.992;2022-08-11T08:55:30;3.78;;;2.13;;
14092;SDS011;7123;49.468;10.992;2022-08-11T08:57:58;2.40;;;2.20;;
14092;SDS011;7123;49.468;10.992;2022-08-11T09:00:28;3.50;;;2.53;;
14092;SDS011;7123;49.468;10.992;2022-08-11T09:03:08;3.53;;;2.10;;
14092;SDS011;7123;49.468;10.992;2022-08-11T09:05:55;2.20;;;2.00;;
14092;SDS011;7123;49.468;10.992;2022-08-11T09:08:23;4.47;;;2.50;;
14092;SDS011;7123;49.468;10.992;2022-08-11T09:10:50;4.70;;;2.63;;
14092;SDS011;7123;49.468;10.992;2022-08-11T09:13:39;3.90;;;2.33;;
14092;SDS011;7123;49.468;10.992;2022-08-11T09:16:09;2.40;;;2.10;;
14092;SDS011;7123;49.468;10.992;2022-08-11T09:18:38;3.72;;;2.20;;
14092;SDS011;7123;49.468;10.992;2022-08-11T09:21:10;2.53;;;2.30;;
14092;SDS011;7123;49.468;10.992;2022-08-11T09:23:59;2.70;;;2.22;;
14092;SDS011;7123;49.468;10.992;2022-08-11T09:26:51;4.53;;;2.08;;
14092;SDS011;7123;49.468;10.992;2022-08-11T09:29:26;3.38;;;2.20;;
14092;SDS011;7123;49.468;10.992;2022-08-11T09:31:54;2.75;;;2.55;;
14092;SDS011;7123;49.468;10.992;2022-08-11T09:34:22;2.38;;;2.17;;
14092;SDS011;7123;49.468;10.992;2022-08-11T09:36:51;2.30;;;2.10;;
14092;SDS011;7123;49.468;10.992;2022-08-11T09:39:54;2.13;;;2.00;;
14092;SDS011;7123;49.468;10.992;2022-08-11T09:42:40;5.70;;;2.22;;
14092;SDS011;7123;49.468;10.992;2022-08-11T09:45:28;3.17;;;2.40;;
14092;SDS011;7123;49.468;10.992;2022-08-11T09:48:05;2.30;;;2.10;;
14092;SDS011;7123;49.468;10.992;2022-08-11T09:50:33;2.63;;;2.35;;
14092;SDS011;7123;49.468;10.992;2022-08-11T09:53:03;2.63;;;2.50;;
14092;SDS011;7123;49.468;10.992;2022-08-11T09:55:51;3.33;;;2.45;;
14092;SDS011;7123;49.468;10.992;2022-08-11T09:58:18;2.83;;;2.55;;
14092;SDS011;7123;49.468;10.992;2022-08-11T10:01:08;5.10;;;2.47;;
14092;SDS011;7123;49.468;10.992;2022-08-11T10:04:37;2.58;;;2.38;;
14092;SDS011;7123;49.468;10.992;2022-08-11T10:06:51;2.00;;;1.90;;
14092;SDS011;7123;49.468;10.992;2022-08-11T10:09:35;3.60;;;2.50;;
14092;SDS011;7123;49.468;10.992;2022-08-11T10:12:05;5.47;;;2.17;;
14092;SDS011;7123;49.468;10.992;2022-08-11T10:14:41;4.25;;;2.38;;
14092;SDS011;7123;49.468;10.992;2022-08-11T10:17:31;2.47;;;2.25;;
14092;SDS011;7123;49.468;10.992;2022-08-11T10:20:01;4.10;;;2.10;;
14092;SDS011;7123;49.468;10.992;2022-08-11T10:22:33;3.65;;;2.03;;
14092;SDS011;7123;49.468;10.992;2022-08-11T10:25:19;3.58;;;2.20;;
14092;SDS011;7123;49.468;10.992;2022-08-11T10:28:06;2.25;;;2.10;;
14092;SDS011;7123;49.468;10.992;2022-08-11T10:30:54;2.50;;;2.30;;
14092;SDS011;7123;49.468;10.992;2022-08-11T10:33:42;2.53;;;2.30;;
14092;SDS011;7123;49.468;10.992;2022-08-11T10:36:29;3.58;;;2.28;;
14092;SDS011;7123;49.468;10.992;2022-08-11T10:38:58;6.28;;;2.25;;
14092;SDS011;7123;49.468;10.992;2022-08-11T10:41:27;2.40;;;2.10;;
14092;SDS011;7123;49.468;10.992;2022-08-11T10:44:40;2.40;;;2.20;;
14092;SDS011;7123;49.468;10.992;2022-08-11T10:47:10;3.05;;;2.25;;
14092;SDS011;7123;49.468;10.992;2022-08-11T10:49:57;3.67;;;2.30;;
14092;SDS011;7123;49.468;10.992;2022-08-11T10:52:44;4.25;;;2.03;;
14092;SDS011;7123;49.468;10.992;2022-08-11T10:55:32;2.10;;;2.00;;
14092;SDS011;7123;49.468;10.992;2022-08-11T10:58:23;2.65;;;2.45;;
14092;SDS011;7123;49.468;10.992;2022-08-11T11:01:08;3.70;;;2.00;;
14092;SDS011;7123;49.468;10.992;2022-08-11T11:03:36;2.20;;;2.00;;
14092;SDS011;7123;49.468;10.992;2022-08-11T11:08:57;2.70;;;2.40;;
14092;SDS011;7123;49.468;10.992;2022-08-11T11:11:37;2.75;;;2.20;;
14092;SDS011;7123;49.468;10.992;2022-08-11T11:14:26;2.25;;;2.08;;
14092;SDS011;7123;49.468;10.992;2022-08-11T11:17:25;4.25;;;2.20;;
14092;SDS011;7123;49.468;10.992;2022-08-11T11:20:15;2.47;;;2.10;;
14092;SDS011;7123;49.468;10.992;2022-08-11T11:23:22;2.65;;;1.95;;
14092;SDS011;7123;49.468;10.992;2022-08-11T11:29:06;3.97;;;2.13;;
14092;SDS011;7123;49.468;10.992;2022-08-11T11:37:19;2.95;;;2.00;;
14092;SDS011;7123;49.468;10.992;2022-08-11T11:39:48;2.08;;;1.90;;
14092;SDS011;7123;49.468;10.992;2022-08-11T11:42:15;2.22;;;1.80;;
14092;SDS011;7123;49.468;10.992;2022-08-11T11:44:43;2.97;;;2.17;;
14092;SDS011;7123;49.468;10.992;2022-08-11T11:47:12;2.83;;;1.98;;
14092;SDS011;7123;49.468;10.992;2022-08-11T11:49:41;4.10;;;1.70;;
14092;SDS011;7123;49.468;10.992;2022-08-11T11:52:12;3.22;;;1.90;;
14092;SDS011;7123;49.468;10.992;2022-08-11T11:54:47;2.55;;;1.80;;
14092;SDS011;7123;49.468;10.992;2022-08-11T11:57:17;3.40;;;1.88;;
14092;SDS011;7123;49.468;10.992;2022-08-11T12:00:23;1.85;;;1.70;;
14092;SDS011;7123;49.468;10.992;2022-08-11T12:03:14;1.95;;;1.83;;
14092;SDS011;7123;49.468;10.992;2022-08-11T12:05:43;2.95;;;1.95;;
14092;SDS011;7123;49.468;10.992;2022-08-11T12:08:12;2.97;;;1.85;;
14092;SDS011;7123;49.468;10.992;2022-08-11T12:13:41;2.13;;;1.95;;
14092;SDS011;7123;49.468;10.992;2022-08-11T12:16:11;3.63;;;2.08;;
14092;SDS011;7123;49.468;10.992;2022-08-11T12:19:00;3.88;;;2.00;;
14092;SDS011;7123;49.468;10.992;2022-08-11T12:21:30;2.08;;;1.88;;
14092;SDS011;7123;49.468;10.992;2022-08-11T12:24:00;6.88;;;2.05;;
14092;SDS011;7123;49.468;10.992;2022-08-11T12:26:46;4.03;;;1.75;;
14092;SDS011;7123;49.468;10.992;2022-08-11T12:29:34;1.80;;;1.70;;
14092;SDS011;7123;49.468;10.992;2022-08-11T12:32:08;2.55;;;1.83;;
14092;SDS011;7123;49.468;10.992;2022-08-11T12:34:35;4.95;;;2.03;;
14092;SDS011;7123;49.468;10.992;2022-08-11T12:37:02;1.92;;;1.80;;
14092;SDS011;7123;49.468;10.992;2022-08-11T12:39:38;3.25;;;1.52;;
14092;SDS011;7123;49.468;10.992;2022-08-11T12:42:48;3.70;;;1.70;;
14092;SDS011;7123;49.468;10.992;2022-08-11T12:46:08;2.22;;;2.05;;
14092;SDS011;7123;49.468;10.992;2022-08-11T12:48:41;1.98;;;1.77;;
14092;SDS011;7123;49.468;10.992;2022-08-11T12:51:31;1.77;;;1.67;;
14092;SDS011;7123;49.468;10.992;2022-08-11T12:54:41;4.25;;;2.00;;
14092;SDS011;7123;49.468;10.992;2022-08-11T12:57:19;2.53;;;1.80;;
14092;SDS011;7123;49.468;10.992;2022-08-11T13:00:16;3.63;;;2.25;;
14092;SDS011;7123;49.468;10.992;2022-08-11T13:03:03;2.03;;;1.92;;
14092;SDS011;7123;49.468;10.992;2022-08-11T13:05:51;1.98;;;1.88;;
14092;SDS011;7123;49.468;10.992;2022-08-11T13:08:21;5.55;;;1.80;;
14092;SDS011;7123;49.468;10.992;2022-08-11T13:10:50;2.00;;;1.73;;
14092;SDS011;7123;49.468;10.992;2022-08-11T13:13:38;2.10;;;2.00;;
14092;SDS011;7123;49.468;10.992;2022-08-11T13:16:21;3.53;;;1.63;;
14092;SDS011;7123;49.468;10.992;2022-08-11T13:18:50;3.15;;;1.67;;
14092;SDS011;7123;49.468;10.992;2022-08-11T13:21:18;2.80;;;1.63;;
14092;SDS011;7123;49.468;10.992;2022-08-11T13:23:47;4.50;;;2.13;;
14092;SDS011;7123;49.468;10.992;2022-08-11T13:26:27;2.85;;;1.83;;
14092;SDS011;7123;49.468;10.992;2022-08-11T13:29:13;2.60;;;1.90;;
14092;SDS011;7123;49.468;10.992;2022-08-11T13:31:45;3.22;;;1.63;;
14092;SDS011;7123;49.468;10.992;2022-08-11T13:34:14;3.13;;;1.70;;
14092;SDS011;7123;49.468;10.992;2022-08-11T13:36:45;1.88;;;1.77;;
14092;SDS011;7123;49.468;10.992;2022-08-11T13:39:18;2.20;;;1.70;;
14092;SDS011;7123;49.468;10.992;2022-08-11T13:41:50;1.70;;;1.60;;
14092;SDS011;7123;49.468;10.992;2022-08-11T13:44:20;1.98;;;1.80;;
14092;SDS011;7123;49.468;10.992;2022-08-11T13:46:51;2.17;;;1.98;;
14092;SDS011;7123;49.468;10.992;2022-08-11T13:49:27;1.85;;;1.70;;
14092;SDS011;7123;49.468;10.992;2022-08-11T13:51:56;4.75;;;2.00;;
14092;SDS011;7123;49.468;10.992;2022-08-11T13:54:25;4.07;;;1.85;;
14092;SDS011;7123;49.468;10.992;2022-08-11T13:56:56;2.65;;;1.85;;
14092;SDS011;7123;49.468;10.992;2022-08-11T13:59:26;3.60;;;1.95;;
14092;SDS011;7123;49.468;10.992;2022-08-11T14:01:56;2.78;;;1.98;;
14092;SDS011;7123;49.468;10.992;2022-08-11T14:04:54;6.60;;;2.40;;
14092;SDS011;7123;49.468;10.992;2022-08-11T14:07:23;1.75;;;1.65;;
14092;SDS011;7123;49.468;10.992;2022-08-11T14:10:03;1.88;;;1.77;;
14092;SDS011;7123;49.468;10.992;2022-08-11T14:12:33;3.15;;;1.60;;
14092;SDS011;7123;49.468;10.992;2022-08-11T14:15:21;13.27;;;1.92;;
14092;SDS011;7123;49.468;10.992;2022-08-11T14:18:02;1.73;;;1.63;;
14092;SDS011;7123;49.468;10.992;2022-08-11T14:20:51;2.65;;;1.80;;
14092;SDS011;7123;49.468;10.992;2022-08-11T14:23:40;2.30;;;1.73;;
14092;SDS011;7123;49.468;10.992;2022-08-11T14:26:10;5.78;;;1.65;;
14092;SDS011;7123;49.468;10.992;2022-08-11T14:31:28;1.95;;;1.70;;
14092;SDS011;7123;49.468;10.992;2022-08-11T14:33:58;1.63;;;1.60;;
14092;SDS011;7123;49.468;10.992;2022-08-11T14:36:29;2.08;;;1.60;;
14092;SDS011;7123;49.468;10.992;2022-08-11T14:39:01;1.98;;;1.77;;
14092;SDS011;7123;49.468;10.992;2022-08-11T14:41:31;1.80;;;1.70;;
14092;SDS011;7123;49.468;10.992;2022-08-11T14:44:38;3.42;;;2.00;;
14092;SDS011;7123;49.468;10.992;2022-08-11T14:47:50;1.60;;;1.50;;
14092;SDS011;7123;49.468;10.992;2022-08-11T14:50:22;2.15;;;1.95;;
14092;SDS011;7123;49.468;10.992;2022-08-11T14:52:51;2.15;;;1.80;;
14092;SDS011;7123;49.468;10.992;2022-08-11T14:55:27;3.75;;;1.80;;
14092;SDS011;7123;49.468;10.992;2022-08-11T14:58:14;2.42;;;1.88;;
14092;SDS011;7123;49.468;10.992;2022-08-11T15:00:43;1.92;;;1.83;;
14092;SDS011;7123;49.468;10.992;2022-08-11T15:03:11;1.80;;;1.70;;
14092;SDS011;7123;49.468;10.992;2022-08-11T15:08:23;1.67;;;1.40;;
14092;SDS011;7123;49.468;10.992;2022-08-11T15:11:14;1.77;;;1.67;;
14092;SDS011;7123;49.468;10.992;2022-08-11T15:14:03;2.08;;;1.90;;
14092;SDS011;7123;49.468;10.992;2022-08-11T15:16:32;4.38;;;2.13;;
14092;SDS011;7123;49.468;10.992;2022-08-11T15:19:23;1.80;;;1.70;;
14092;SDS011;7123;49.468;10.992;2022-08-11T15:21:52;6.05;;;2.00;;
14092;SDS011;7123;49.468;10.992;2022-08-11T15:24:37;2.95;;;1.98;;
14092;SDS011;7123;49.468;10.992;2022-08-11T15:27:04;4.38;;;2.10;;
14092;SDS011;7123;49.468;10.992;2022-08-11T15:29:55;2.13;;;1.75;;
14092;SDS011;7123;49.468;10.992;2022-08-11T15:33:00;2.30;;;2.03;;
14092;SDS011;7123;49.468;10.992;2022-08-11T15:35:48;3.20;;;1.88;;
14092;SDS011;7123;49.468;10.992;2022-08-11T15:38:35;2.42;;;1.98;;
14092;SDS011;7123;49.468;10.992;2022-08-11T15:41:07;2.03;;;1.65;;
14092;SDS011;7123;49.468;10.992;2022-08-11T15:43:57;3.70;;;1.95;;
14092;SDS011;7123;49.468;10.992;2022-08-11T15:46:45;2.88;;;1.80;;
14092;SDS011;7123;49.468;10.992;2022-08-11T15:49:21;2.10;;;1.90;;
14092;SDS011;7123;49.468;10.992;2022-08-11T15:52:15;1.92;;;1.83;;
14092;SDS011;7123;49.468;10.992;2022-08-11T15:54:44;2.42;;;1.90;;
14092;SDS011;7123;49.468;10.992;2022-08-11T15:57:14;2.03;;;1.90;;
14092;SDS011;7123;49.468;10.992;2022-08-11T16:00:05;1.90;;;1.80;;
14092;SDS011;7123;49.468;10.992;2022-08-11T16:02:52;2.97;;;1.60;;
14092;SDS011;7123;49.468;10.992;2022-08-11T16:05:20;2.22;;;1.92;;
14092;SDS011;7123;49.468;10.992;2022-08-11T16:08:11;3.28;;;2.08;;
14092;SDS011;7123;49.468;10.992;2022-08-11T16:10:40;1.98;;;1.60;;
14092;SDS011;7123;49.468;10.992;2022-08-11T16:13:10;4.78;;;2.03;;
14092;SDS011;7123;49.468;10.992;2022-08-11T16:15:52;3.20;;;1.55;;
14092;SDS011;7123;49.468;10.992;2022-08-11T16:21:26;3.58;;;1.55;;
14092;SDS011;7123;49.468;10.992;2022-08-11T16:24:12;2.20;;;1.70;;
14092;SDS011;7123;49.468;10.992;2022-08-11T16:27:00;2.35;;;2.22;;
14092;SDS011;7123;49.468;10.992;2022-08-11T16:29:39;2.00;;;1.80;;
14092;SDS011;7123;49.468;10.992;2022-08-11T16:32:15;1.83;;;1.73;;
14092;SDS011;7123;49.468;10.992;2022-08-11T16:34:48;2.10;;;1.83;;
14092;SDS011;7123;49.468;10.992;2022-08-11T16:37:37;5.60;;;1.77;;
14092;SDS011;7123;49.468;10.992;2022-08-11T16:40:23;1.90;;;1.80;;
14092;SDS011;7123;49.468;10.992;2022-08-11T16:42:51;1.90;;;1.55;;
14092;SDS011;7123;49.468;10.992;2022-08-11T16:45:38;1.90;;;1.70;;
14092;SDS011;7123;49.468;10.992;2022-08-11T16:48:25;1.70;;;1.60;;
14092;SDS011;7123;49.468;10.992;2022-08-11T16:51:06;2.47;;;2.00;;
14092;SDS011;7123;49.468;10.992;2022-08-11T16:53:35;7.13;;;2.13;;
14092;SDS011;7123;49.468;10.992;2022-08-11T16:56:27;1.70;;;1.60;;
14092;SDS011;7123;49.468;10.992;2022-08-11T16:58:59;2.00;;;1.80;;
14092;SDS011;7123;49.468;10.992;2022-08-11T17:01:45;1.83;;;1.73;;
14092;SDS011;7123;49.468;10.992;2022-08-11T17:04:20;1.85;;;1.75;;
14092;SDS011;7123;49.468;10.992;2022-08-11T17:07:09;1.70;;;1.60;;
14092;SDS011;7123;49.468;10.992;2022-08-11T17:10:10;2.15;;;1.98;;
14092;SDS011;7123;49.468;10.992;2022-08-11T17:13:25;2.15;;;1.95;;
14092;SDS011;7123;49.468;10.992;2022-08-11T17:16:02;3.22;;;1.90;;
14092;SDS011;7123;49.468;10.992;2022-08-11T17:18:42;2.67;;;2.17;;
14092;SDS011;7123;49.468;10.992;2022-08-11T17:23:51;2.50;;;1.70;;
14092;SDS011;7123;49.468;10.992;2022-08-11T17:26:34;3.35;;;2.10;;
14092;SDS011;7123;49.468;10.992;2022-08-11T17:31:58;2.40;;;1.95;;
14092;SDS011;7123;49.468;10.992;2022-08-11T17:34:46;2.15;;;2.05;;
14092;SDS011;7123;49.468;10.992;2022-08-11T17:37:33;2.08;;;1.98;;
14092;SDS011;7123;49.468;10.992;2022-08-11T17:40:02;2.45;;;2.20;;
14092;SDS011;7123;49.468;10.992;2022-08-11T17:42:32;3.67;;;2.08;;
14092;SDS011;7123;49.468;10.992;2022-08-11T17:45:29;2.38;;;2.17;;
14092;SDS011;7123;49.468;10.992;2022-08-11T17:48:26;4.07;;;2.20;;
14092;SDS011;7123;49.468;10.992;2022-08-11T17:50:56;2.85;;;2.25;;
14092;SDS011;7123;49.468;10.992;2022-08-11T17:53:47;2.40;;;2.20;;
14092;SDS011;7123;49.468;10.992;2022-08-11T17:56:49;2.58;;;2.00;;
14092;SDS011;7123;49.468;10.992;2022-08-11T17:59:46;2.50;;;1.90;;
14092;SDS011;7123;49.468;10.992;2022-08-11T18:02:20;2.30;;;2.10;;
14092;SDS011;7123;49.468;10.992;2022-08-11T18:05:11;2.97;;;1.90;;
14092;SDS011;7123;49.468;10.992;2022-08-11T18:07:40;2.42;;;2.22;;
14092;SDS011;7123;49.468;10.992;2022-08-11T18:10:27;3.70;;;1.90;;
14092;SDS011;7123;49.468;10.992;2022-08-11T18:13:17;1.80;;;1.70;;
14092;SDS011;7123;49.468;10.992;2022-08-11T18:16:06;3.15;;;2.20;;
14092;SDS011;7123;49.468;10.992;2022-08-11T18:18:55;2.35;;;2.20;;
14092;SDS011;7123;49.468;10.992;2022-08-11T18:21:43;2.30;;;2.10;;
14092;SDS011;7123;49.468;10.992;2022-08-11T18:24:44;2.15;;;2.05;;
14092;SDS011;7123;49.468;10.992;2022-08-11T18:27:33;4.07;;;2.22;;
14092;SDS011;7123;49.468;10.992;2022-08-11T18:30:22;2.58;;;2.38;;
14092;SDS011;7123;49.468;10.992;2022-08-11T18:33:08;2.25;;;2.00;;
14092;SDS011;7123;49.468;10.992;2022-08-11T18:36:19;3.60;;;2.40;;
14092;SDS011;7123;49.468;10.992;2022-08-11T18:39:08;2.17;;;1.98;;
14092;SDS011;7123;49.468;10.992;2022-08-11T18:41:57;3.30;;;2.28;;
14092;SDS011;7123;49.468;10.992;2022-08-11T18:44:55;8.45;;;2.72;;
14092;SDS011;7123;49.468;10.992;2022-08-11T18:48:11;4.65;;;2.53;;
14092;SDS011;7123;49.468;10.992;2022-08-11T18:51:04;2.25;;;2.15;;
14092;SDS011;7123;49.468;10.992;2022-08-11T18:54:03;2.38;;;2.28;;
14092;SDS011;7123;49.468;10.992;2022-08-11T18:56:56;7.15;;;2.30;;
14092;SDS011;7123;49.468;10.992;2022-08-11T18:59:45;2.63;;;2.40;;
14092;SDS011;7123;49.468;10.992;2022-08-11T19:02:33;3.00;;;2.60;;
14092;SDS011;7123;49.468;10.992;2022-08-11T19:05:20;6.75;;;2.35;;
14092;SDS011;7123;49.468;10.992;2022-08-11T19:08:28;3.92;;;2.38;;
14092;SDS011;7123;49.468;10.992;2022-08-11T19:11:15;3.08;;;2.75;;
14092;SDS011;7123;49.468;10.992;2022-08-11T19:14:09;6.78;;;2.30;;
14092;SDS011;7123;49.468;10.992;2022-08-11T19:16:57;7.10;;;2.33;;
14092;SDS011;7123;49.468;10.992;2022-08-11T19:20:05;3.72;;;2.15;;
14092;SDS011;7123;49.468;10.992;2022-08-11T19:22:54;5.65;;;2.60;;
14092;SDS011;7123;49.468;10.992;2022-08-11T19:25:44;2.45;;;2.25;;
14092;SDS011;7123;49.468;10.992;2022-08-11T19:28:31;2.67;;;2.47;;
14092;SDS011;7123;49.468;10.992;2022-08-11T19:31:19;2.40;;;2.20;;
14092;SDS011;7123;49.468;10.992;2022-08-11T19:34:10;2.40;;;2.20;;
14092;SDS011;7123;49.468;10.992;2022-08-11T19:37:09;2.55;;;2.35;;